createdAt,value
2022-12-05T00:01:12.986Z,9.93
2022-12-05T00:03:40.331Z,10.45
2022-12-05T00:06:07.810Z,10.15
2022-12-05T00:08:35.023Z,10.07
2022-12-05T00:11:01.809Z,11.32
2022-12-05T00:13:29.221Z,12.18
2022-12-05T00:15:56.026Z,11.70
2022-12-05T00:18:23.052Z,12.40
2022-12-05T00:20:50.673Z,12.30
2022-12-05T00:23:17.775Z,10.52
2022-12-05T00:25:44.671Z,11.48
2022-12-05T00:28:11.956Z,11.77
2022-12-05T00:30:40.739Z,11.75
2022-12-05T00:33:07.839Z,10.70
2022-12-05T00:35:35.843Z,11.05
2022-12-05T00:38:02.917Z,9.43
2022-12-05T00:40:29.771Z,12.55
2022-12-05T00:42:57.228Z,13.23
2022-12-05T00:45:24.054Z,12.10
2022-12-05T00:47:51.131Z,13.05
2022-12-05T00:50:18.403Z,12.93
2022-12-05T00:52:45.543Z,14.23
2022-12-05T00:55:12.351Z,11.52
2022-12-05T00:57:39.686Z,12.93
2022-12-05T01:00:07.557Z,12.30
2022-12-05T01:02:34.622Z,12.23
2022-12-05T01:05:01.922Z,11.50
2022-12-05T01:07:29.110Z,11.68
2022-12-05T01:09:56.235Z,11.25
2022-12-05T01:12:24.053Z,12.63
2022-12-05T01:14:50.841Z,13.65
2022-12-05T01:17:17.995Z,15.15
2022-12-05T01:19:45.352Z,14.02
2022-12-05T01:22:12.709Z,14.00
2022-12-05T01:24:39.497Z,12.75
2022-12-05T01:27:07.364Z,10.82
2022-12-05T01:29:34.197Z,11.02
2022-12-05T01:32:01.341Z,10.27
2022-12-05T01:34:28.438Z,10.85
2022-12-05T01:36:55.610Z,11.15
2022-12-05T01:39:22.653Z,10.77
2022-12-05T01:41:50.637Z,11.05
2022-12-05T01:44:17.417Z,9.70
2022-12-05T01:46:48.686Z,10.57
2022-12-05T01:49:21.305Z,10.27
2022-12-05T01:52:14.713Z,10.77
2022-12-05T01:54:44.264Z,11.68
2022-12-05T01:57:13.484Z,10.93
2022-12-05T01:59:45.576Z,9.73
2022-12-05T02:02:13.381Z,11.38
2022-12-05T02:04:59.744Z,11.85
2022-12-05T02:07:27.354Z,11.55
2022-12-05T02:09:54.204Z,10.80
2022-12-05T02:12:22.953Z,11.02
2022-12-05T02:15:14.559Z,10.77
2022-12-05T02:17:50.759Z,11.15
2022-12-05T02:20:40.630Z,10.55
2022-12-05T02:23:26.610Z,12.35
2022-12-05T02:26:08.748Z,14.38
2022-12-05T02:29:12.323Z,13.65
2022-12-05T02:31:43.373Z,13.60
2022-12-05T02:34:20.974Z,14.85
2022-12-05T02:37:08.404Z,13.70
2022-12-05T02:39:44.860Z,13.45
2022-12-05T02:42:31.184Z,14.00
2022-12-05T02:45:07.573Z,12.63
2022-12-05T02:47:40.183Z,14.07
2022-12-05T02:50:12.581Z,14.23
2022-12-05T02:52:41.016Z,14.15
2022-12-05T02:55:09.145Z,14.60
2022-12-05T02:57:39.299Z,15.75
2022-12-05T03:00:06.781Z,14.90
2022-12-05T03:02:35.187Z,14.57
2022-12-05T03:05:22.994Z,16.27
2022-12-05T03:07:55.109Z,16.92
2022-12-05T03:10:26.592Z,17.77
2022-12-05T03:13:00.113Z,17.40
2022-12-05T03:15:34.039Z,18.20
2022-12-05T03:18:06.713Z,17.85
2022-12-05T03:20:41.828Z,17.50
2022-12-05T03:23:15.536Z,18.13
2022-12-05T03:26:18.769Z,19.15
2022-12-05T03:28:48.864Z,20.63
2022-12-05T03:31:24.906Z,22.20
2022-12-05T03:33:59.193Z,22.50
2022-12-05T03:36:38.079Z,23.83
2022-12-05T03:39:28.833Z,24.88
2022-12-05T03:41:59.168Z,22.38
2022-12-05T03:45:11.018Z,25.13
2022-12-05T03:47:52.806Z,52.65
2022-12-05T03:50:27.630Z,31.05
2022-12-05T03:55:54.596Z,27.00
2022-12-05T03:58:34.837Z,29.10
2022-12-05T04:01:07.232Z,25.42
2022-12-05T04:03:44.765Z,26.35
2022-12-05T04:08:54.245Z,24.35
2022-12-05T04:11:25.762Z,24.70
2022-12-05T04:13:57.177Z,26.42
2022-12-05T04:16:48.492Z,26.30
2022-12-05T04:19:56.299Z,26.52
2022-12-05T04:22:25.172Z,26.23
2022-12-05T04:25:13.658Z,26.30
2022-12-05T04:27:56.759Z,26.08
2022-12-05T04:30:27.615Z,22.15
2022-12-05T04:33:05.254Z,25.10
2022-12-05T04:35:57.327Z,25.80
2022-12-05T04:38:41.476Z,28.45
2022-12-05T04:41:15.056Z,27.75
2022-12-05T04:43:45.854Z,28.55
2022-12-05T04:46:15.912Z,29.42
2022-12-05T04:48:48.621Z,29.48
2022-12-05T04:51:20.992Z,29.65
2022-12-05T04:53:53.405Z,26.80
2022-12-05T04:56:25.336Z,27.75
2022-12-05T04:58:54.554Z,27.45
2022-12-05T05:01:43.425Z,26.83
2022-12-05T05:04:19.687Z,26.98
2022-12-05T05:06:47.255Z,24.60
2022-12-05T05:09:14.076Z,25.58
2022-12-05T05:11:41.221Z,26.38
2022-12-05T05:14:08.454Z,26.13
2022-12-05T05:16:41.818Z,26.88
2022-12-05T05:19:12.042Z,28.23
2022-12-05T05:21:42.262Z,27.30
2022-12-05T05:24:11.354Z,27.10
2022-12-05T05:26:41.684Z,26.67
2022-12-05T05:29:10.076Z,26.48
2022-12-05T05:31:37.735Z,28.35
2022-12-05T05:34:09.659Z,27.63
2022-12-05T05:36:38.273Z,26.80
2022-12-05T05:39:06.969Z,26.77
2022-12-05T05:41:36.739Z,28.83
2022-12-05T05:44:04.552Z,26.77
2022-12-05T05:46:34.107Z,26.75
2022-12-05T05:49:01.063Z,26.20
2022-12-05T05:51:29.500Z,27.77
2022-12-05T05:53:57.675Z,27.48
2022-12-05T05:56:24.776Z,27.85
2022-12-05T05:58:57.119Z,27.27
2022-12-05T06:01:24.731Z,27.65
2022-12-05T06:03:51.814Z,28.70
2022-12-05T06:06:25.497Z,27.95
2022-12-05T06:08:52.936Z,28.92
2022-12-05T06:11:25.803Z,27.42
2022-12-05T06:13:58.531Z,28.83
2022-12-05T06:16:25.698Z,28.27
2022-12-05T06:18:53.460Z,29.83
2022-12-05T06:21:21.438Z,28.17
2022-12-05T06:23:49.981Z,29.27
2022-12-05T06:26:21.844Z,28.83
2022-12-05T06:28:49.243Z,29.05
2022-12-05T06:31:21.645Z,30.58
2022-12-05T06:33:48.645Z,29.55
2022-12-05T06:36:19.250Z,29.85
2022-12-05T06:38:46.389Z,29.73
2022-12-05T06:41:19.385Z,30.45
2022-12-05T06:43:46.865Z,30.33
2022-12-05T06:46:15.194Z,29.08
2022-12-05T06:48:42.439Z,29.48
2022-12-05T06:51:11.076Z,26.80
2022-12-05T06:53:38.671Z,25.85
2022-12-05T06:56:13.974Z,25.80
2022-12-05T06:58:42.169Z,25.50
2022-12-05T07:01:31.924Z,23.50
2022-12-05T07:03:59.529Z,22.33
2022-12-05T07:06:27.465Z,23.50
2022-12-05T07:08:54.474Z,24.23
2022-12-05T07:11:21.374Z,24.85
2022-12-05T07:13:48.309Z,28.40
2022-12-05T07:16:15.209Z,26.65
2022-12-05T07:18:42.097Z,26.63
2022-12-05T07:21:13.644Z,24.20
2022-12-05T07:23:42.532Z,24.13
2022-12-05T07:26:11.687Z,23.05
2022-12-05T07:28:38.784Z,23.02
2022-12-05T07:31:16.503Z,20.80
2022-12-05T07:33:43.953Z,19.58
2022-12-05T07:36:19.406Z,18.70
2022-12-05T07:38:46.363Z,19.63
2022-12-05T07:41:22.161Z,20.23
2022-12-05T07:43:51.044Z,18.98
2022-12-05T07:46:18.164Z,19.10
2022-12-05T07:48:45.022Z,17.75
2022-12-05T07:51:11.999Z,17.20
2022-12-05T07:53:39.779Z,15.98
2022-12-05T07:56:08.528Z,16.85
2022-12-05T07:58:36.341Z,16.15
2022-12-05T08:01:15.395Z,16.50
2022-12-05T08:03:42.730Z,16.13
2022-12-05T08:06:15.217Z,16.45
2022-12-05T08:08:42.522Z,17.63
2022-12-05T08:11:15.484Z,17.08
2022-12-05T08:13:43.008Z,17.02
2022-12-05T08:16:12.682Z,18.52
2022-12-05T08:18:40.506Z,18.95
2022-12-05T08:21:10.618Z,19.63
2022-12-05T08:23:38.849Z,19.00
2022-12-05T08:26:08.296Z,18.58
2022-12-05T08:28:35.284Z,17.85
2022-12-05T08:31:12.040Z,18.48
2022-12-05T08:33:39.309Z,17.90
2022-12-05T08:36:09.355Z,16.50
2022-12-05T08:38:36.828Z,16.10
2022-12-05T08:41:06.673Z,15.18
2022-12-05T08:43:34.001Z,15.07
2022-12-05T08:46:01.702Z,14.38
2022-12-05T08:48:30.255Z,15.88
2022-12-05T08:50:57.912Z,14.20
2022-12-05T08:53:25.221Z,13.02
2022-12-05T08:55:52.104Z,13.98
2022-12-05T08:58:21.761Z,15.88
2022-12-05T09:00:48.774Z,14.43
2022-12-05T09:03:15.697Z,14.38
2022-12-05T09:05:42.696Z,14.50
2022-12-05T09:08:09.595Z,13.68
2022-12-05T09:10:38.809Z,14.48
2022-12-05T09:13:05.905Z,13.13
2022-12-05T09:15:32.735Z,12.85
2022-12-05T09:18:02.049Z,14.00
2022-12-05T09:20:29.117Z,13.95
2022-12-05T09:22:56.227Z,14.25
2022-12-05T09:25:23.200Z,15.27
2022-12-05T09:27:50.452Z,15.50
2022-12-05T09:30:17.327Z,12.18
2022-12-05T09:32:45.413Z,14.45
2022-12-05T09:35:12.267Z,13.50
2022-12-05T09:37:40.205Z,14.75
2022-12-05T09:40:15.221Z,14.48
2022-12-05T09:43:07.097Z,15.60
2022-12-05T09:45:40.053Z,18.55
2022-12-05T09:48:13.583Z,18.65
2022-12-05T09:50:59.577Z,17.20
2022-12-05T09:53:34.087Z,19.15
2022-12-05T09:56:05.934Z,19.77
2022-12-05T09:58:45.182Z,19.83
2022-12-05T10:01:41.732Z,23.38
2022-12-05T10:04:14.757Z,21.77
2022-12-05T10:06:47.255Z,23.15
2022-12-05T10:09:19.962Z,23.33
2022-12-05T10:12:04.565Z,20.73
2022-12-05T10:14:56.337Z,25.35
2022-12-05T10:17:33.289Z,26.90
2022-12-05T10:20:05.791Z,26.80
2022-12-05T10:22:38.463Z,26.38
2022-12-05T10:25:06.996Z,26.13
2022-12-05T10:27:40.276Z,26.30
2022-12-05T10:30:17.739Z,28.13
2022-12-05T10:33:06.398Z,24.15
2022-12-05T10:35:44.604Z,23.38
2022-12-05T10:38:13.387Z,22.33
2022-12-05T10:40:47.266Z,21.30
2022-12-05T10:43:21.003Z,24.45
2022-12-05T10:45:48.579Z,20.80
2022-12-05T10:48:18.690Z,19.42
2022-12-05T10:50:49.655Z,19.00
2022-12-05T10:53:21.480Z,16.25
2022-12-05T10:56:28.169Z,13.80
2022-12-05T10:58:38.858Z,13.32
2022-12-05T11:01:10.248Z,14.35
2022-12-05T11:03:40.321Z,12.50
2022-12-05T11:06:26.002Z,12.80
2022-12-05T11:09:04.759Z,11.23
2022-12-05T11:11:34.246Z,10.90
2022-12-05T11:14:22.977Z,10.15
2022-12-05T11:16:58.310Z,12.07
2022-12-05T11:19:32.829Z,11.65
2022-12-05T11:22:00.994Z,12.27
2022-12-05T11:24:39.156Z,11.20
2022-12-05T11:27:29.320Z,10.88
2022-12-05T11:30:05.271Z,11.82
2022-12-05T11:32:33.869Z,11.82
2022-12-05T11:35:24.344Z,11.25
2022-12-05T11:38:05.604Z,10.10
2022-12-05T11:40:40.335Z,9.98
2022-12-05T11:43:22.642Z,9.15
2022-12-05T11:46:07.719Z,9.10
2022-12-05T11:48:46.420Z,8.63
2022-12-05T11:51:30.888Z,8.38
2022-12-05T11:55:04.605Z,9.07
2022-12-05T11:57:52.318Z,8.23
2022-12-05T12:00:36.691Z,8.15
2022-12-05T12:03:25.277Z,7.70
2022-12-05T12:06:00.896Z,7.45
2022-12-05T12:08:32.958Z,7.43
2022-12-05T12:11:18.699Z,7.95
2022-12-05T12:13:55.660Z,8.02
2022-12-05T12:16:53.605Z,7.70
2022-12-05T12:19:48.226Z,7.43
2022-12-05T12:22:44.651Z,8.13
2022-12-05T12:25:21.090Z,8.60
2022-12-05T12:28:15.772Z,12.20
2022-12-05T12:31:03.225Z,9.23
2022-12-05T12:33:35.290Z,9.85
2022-12-05T12:36:27.819Z,9.73
2022-12-05T12:39:07.852Z,10.77
2022-12-05T12:42:06.686Z,11.55
2022-12-05T12:44:48.936Z,7.18
2022-12-05T12:47:21.856Z,7.28
2022-12-05T12:50:22.158Z,7.40
2022-12-05T12:53:19.924Z,7.95
2022-12-05T12:56:00.734Z,7.40
2022-12-05T12:58:47.409Z,7.50
2022-12-05T13:01:29.283Z,8.20
2022-12-05T13:04:03.180Z,7.47
2022-12-05T13:06:45.400Z,6.90
2022-12-05T13:09:38.773Z,5.95
2022-12-05T13:12:11.756Z,5.82
2022-12-05T13:14:44.313Z,5.55
2022-12-05T13:17:18.041Z,6.10
2022-12-05T13:19:51.806Z,6.40
2022-12-05T13:22:23.084Z,6.80
2022-12-05T13:24:55.576Z,7.72
2022-12-05T13:27:27.594Z,7.20
2022-12-05T13:30:01.326Z,7.57
2022-12-05T13:32:43.832Z,7.57
2022-12-05T13:35:47.709Z,8.95
2022-12-05T13:38:40.873Z,9.40
2022-12-05T13:41:27.401Z,14.27
2022-12-05T13:44:05.822Z,10.23
2022-12-05T13:46:38.882Z,8.05
2022-12-05T13:49:22.074Z,6.47
2022-12-05T13:51:49.371Z,7.35
2022-12-05T13:54:35.620Z,6.38
2022-12-05T13:57:03.033Z,8.77
2022-12-05T14:00:20.959Z,7.20
2022-12-05T14:02:53.576Z,7.85
2022-12-05T14:05:25.219Z,7.40
2022-12-05T14:08:00.935Z,7.10
2022-12-05T14:10:36.373Z,6.47
2022-12-05T14:13:30.334Z,6.97
2022-12-05T14:16:25.332Z,7.93
2022-12-05T14:19:20.105Z,7.45
2022-12-05T14:22:06.161Z,8.70
2022-12-05T14:24:41.594Z,7.88
2022-12-05T14:27:27.264Z,9.63
2022-12-05T14:30:06.318Z,8.38
2022-12-05T14:32:38.882Z,8.80
2022-12-05T14:35:31.215Z,8.50
2022-12-05T14:38:04.870Z,8.98
2022-12-05T14:40:33.409Z,9.05
2022-12-05T14:43:18.034Z,9.95
2022-12-05T14:45:50.765Z,10.13
2022-12-05T14:48:17.669Z,10.73
2022-12-05T14:50:55.550Z,10.40
2022-12-05T14:53:33.618Z,10.82
2022-12-05T14:56:00.442Z,10.23
2022-12-05T14:58:33.197Z,10.30
2022-12-05T15:01:26.309Z,10.50
2022-12-05T15:04:06.269Z,11.20
2022-12-05T15:06:44.043Z,11.27
2022-12-05T15:09:38.862Z,14.55
2022-12-05T15:12:14.333Z,17.02
2022-12-05T15:14:59.765Z,13.75
2022-12-05T15:17:36.537Z,14.57
2022-12-05T15:20:17.422Z,9.80
2022-12-05T15:22:44.445Z,16.63
2022-12-05T15:25:27.229Z,17.55
2022-12-05T15:28:03.775Z,21.75
2022-12-05T15:30:32.715Z,29.40
2022-12-05T15:33:00.025Z,31.85
2022-12-05T15:35:31.771Z,30.95
2022-12-05T15:38:03.305Z,37.35
2022-12-05T15:40:37.720Z,33.58
2022-12-05T15:43:30.455Z,34.15
2022-12-05T15:46:20.424Z,34.83
2022-12-05T15:48:48.345Z,33.28
2022-12-05T15:51:15.465Z,36.17
2022-12-05T15:53:51.268Z,35.60
2022-12-05T15:56:23.016Z,32.58
2022-12-05T15:58:56.249Z,35.53
2022-12-05T16:01:26.811Z,36.95
2022-12-05T16:04:02.002Z,34.70
2022-12-05T16:06:34.470Z,40.33
2022-12-05T16:09:11.310Z,51.33
2022-12-05T16:11:39.198Z,55.60
2022-12-05T16:14:08.424Z,59.67
2022-12-05T16:16:38.842Z,51.88
2022-12-05T16:19:16.719Z,48.25
2022-12-05T16:21:59.297Z,43.17
2022-12-05T16:24:31.415Z,36.95
2022-12-05T16:27:17.268Z,30.80
2022-12-05T16:29:45.288Z,28.17
2022-12-05T16:32:25.830Z,25.58
2022-12-05T16:34:52.849Z,23.20
2022-12-05T16:37:28.278Z,23.85
2022-12-05T16:39:56.318Z,24.80
2022-12-05T16:42:30.182Z,22.00
2022-12-05T16:45:03.818Z,22.88
2022-12-05T16:47:55.616Z,22.05
2022-12-05T16:50:28.884Z,22.15
2022-12-05T16:53:08.243Z,21.17
2022-12-05T16:55:39.395Z,20.77
2022-12-05T16:58:09.805Z,23.30
2022-12-05T17:00:36.649Z,20.70
2022-12-05T17:03:32.395Z,22.35
2022-12-05T17:05:50.816Z,22.50
2022-12-05T17:08:17.817Z,21.95
2022-12-05T17:10:45.084Z,27.80
2022-12-05T17:13:15.558Z,26.92
2022-12-05T17:15:42.779Z,27.17
2022-12-05T17:18:18.833Z,23.58
2022-12-05T17:20:53.426Z,26.25
2022-12-05T17:23:21.464Z,25.95
2022-12-05T17:25:59.220Z,29.73
2022-12-05T17:28:26.873Z,29.45
2022-12-05T17:30:53.754Z,31.38
2022-12-05T17:33:20.840Z,31.58
2022-12-05T17:35:47.976Z,33.38
2022-12-05T17:38:15.156Z,31.25
2022-12-05T17:40:42.777Z,34.38
2022-12-05T17:43:14.991Z,35.40
2022-12-05T17:45:44.210Z,34.53
2022-12-05T17:48:15.304Z,29.63
2022-12-05T17:50:45.186Z,30.13
2022-12-05T17:53:17.535Z,27.95
2022-12-05T17:55:44.941Z,27.13
2022-12-05T17:58:12.533Z,27.63
2022-12-05T18:00:42.704Z,26.48
2022-12-05T18:03:15.323Z,25.23
2022-12-05T18:05:42.457Z,27.92
2022-12-05T18:08:10.062Z,24.35
2022-12-05T18:10:37.321Z,24.38
2022-12-05T18:13:04.110Z,23.98
2022-12-05T18:15:31.011Z,21.88
2022-12-05T18:17:58.523Z,23.40
2022-12-05T18:20:25.399Z,23.42
2022-12-05T18:22:52.395Z,23.35
2022-12-05T18:25:19.295Z,22.13
2022-12-05T18:27:46.223Z,22.05
2022-12-05T18:30:13.653Z,20.42
2022-12-05T18:32:40.533Z,20.85
2022-12-05T18:35:12.734Z,20.48
2022-12-05T18:37:40.364Z,19.15
2022-12-05T18:40:09.636Z,19.27
2022-12-05T18:42:36.813Z,18.77
2022-12-05T18:45:04.844Z,18.85
2022-12-05T18:47:32.008Z,19.27
2022-12-05T18:50:00.546Z,18.42
2022-12-05T18:52:27.676Z,17.20
2022-12-05T18:55:15.612Z,17.33
2022-12-05T18:57:42.236Z,16.45
2022-12-05T19:00:10.401Z,15.77
2022-12-05T19:02:37.582Z,14.50
2022-12-05T19:05:05.049Z,15.60
2022-12-05T19:07:32.572Z,15.25
2022-12-05T19:09:59.365Z,15.48
2022-12-05T19:12:26.227Z,14.00
2022-12-05T19:14:53.078Z,14.63
2022-12-05T19:17:20.049Z,14.25
2022-12-05T19:19:46.913Z,14.38
2022-12-05T19:22:13.775Z,14.73
2022-12-05T19:24:40.654Z,13.77
2022-12-05T19:27:08.070Z,12.77
2022-12-05T19:29:34.878Z,13.52
2022-12-05T19:32:02.131Z,14.40
2022-12-05T19:34:29.248Z,14.98
2022-12-05T19:36:56.466Z,15.63
2022-12-05T19:39:27.452Z,13.50
2022-12-05T19:41:57.915Z,13.27
2022-12-05T19:44:24.988Z,12.25
2022-12-05T19:46:53.305Z,14.85
2022-12-05T19:49:20.498Z,14.90
2022-12-05T19:51:48.725Z,16.80
2022-12-05T19:54:17.903Z,16.35
2022-12-05T19:56:45.319Z,26.42
2022-12-05T19:59:16.321Z,15.95
2022-12-05T20:01:44.777Z,12.75
2022-12-05T20:04:14.567Z,11.20
2022-12-05T20:06:43.786Z,10.07
2022-12-05T20:09:12.851Z,8.80
2022-12-05T20:11:41.811Z,9.05
2022-12-05T20:14:11.064Z,10.10
2022-12-05T20:16:38.355Z,10.38
2022-12-05T20:19:05.382Z,10.57
2022-12-05T20:21:33.833Z,11.50
2022-12-05T20:24:02.624Z,11.82
2022-12-05T20:26:35.388Z,11.75
2022-12-05T20:29:04.004Z,12.32
2022-12-05T20:31:36.965Z,13.93
2022-12-05T20:34:05.731Z,12.18
2022-12-05T20:36:34.344Z,12.65
2022-12-05T20:39:03.785Z,13.38
2022-12-05T20:41:30.682Z,12.38
2022-12-05T20:44:00.753Z,11.70
2022-12-05T20:46:29.047Z,11.50
2022-12-05T20:48:56.613Z,10.98
2022-12-05T20:51:29.715Z,10.88
2022-12-05T20:53:58.401Z,11.80
2022-12-05T20:56:31.809Z,11.30
2022-12-05T20:59:01.185Z,11.93
2022-12-05T21:01:33.068Z,11.40
2022-12-05T21:04:01.644Z,12.32
2022-12-05T21:06:34.457Z,14.43
2022-12-05T21:09:02.358Z,13.27
2022-12-05T21:11:30.088Z,13.65
2022-12-05T21:14:00.385Z,12.82
2022-12-05T21:16:28.093Z,13.38
2022-12-05T21:18:56.395Z,13.40
2022-12-05T21:21:26.032Z,14.25
2022-12-05T21:23:55.547Z,15.60
2022-12-05T21:26:23.992Z,15.88
2022-12-05T21:28:51.926Z,14.93
2022-12-05T21:31:31.116Z,18.75
2022-12-05T21:34:01.323Z,20.90
2022-12-05T21:36:31.157Z,25.85
2022-12-05T21:38:58.446Z,29.30
2022-12-05T21:41:26.710Z,30.05
2022-12-05T21:43:55.329Z,27.30
2022-12-05T21:46:24.792Z,24.50
2022-12-05T21:48:52.064Z,24.55
2022-12-05T21:51:19.131Z,24.23
2022-12-05T21:53:46.579Z,25.83
2022-12-05T21:56:16.071Z,29.98
2022-12-05T21:58:45.107Z,34.88
2022-12-05T22:01:19.888Z,37.03
2022-12-05T22:03:47.484Z,39.45
2022-12-05T22:06:15.478Z,36.35
2022-12-05T22:08:43.347Z,38.92
2022-12-05T22:11:15.023Z,35.22
2022-12-05T22:13:43.215Z,33.95
2022-12-05T22:16:11.065Z,36.30
2022-12-05T22:18:38.468Z,42.28
2022-12-05T22:21:17.395Z,35.60
2022-12-05T22:23:44.993Z,26.50
2022-12-05T22:26:18.075Z,23.27
2022-12-05T22:28:45.777Z,22.60
2022-12-05T22:31:15.240Z,20.60
2022-12-05T22:33:42.769Z,19.35
2022-12-05T22:36:12.525Z,18.05
2022-12-05T22:38:42.653Z,18.38
2022-12-05T22:41:16.173Z,17.70
2022-12-05T22:43:45.325Z,17.95
2022-12-05T22:46:15.957Z,17.30
2022-12-05T22:48:43.553Z,15.70
2022-12-05T22:51:11.186Z,15.55
2022-12-05T22:53:38.679Z,13.88
2022-12-05T22:56:16.607Z,12.45
2022-12-05T22:58:45.457Z,12.10
2022-12-05T23:01:17.015Z,13.18
2022-12-05T23:03:46.245Z,12.20
2022-12-05T23:06:15.246Z,11.05
2022-12-05T23:08:43.915Z,11.02
2022-12-05T23:11:11.860Z,12.95
2022-12-05T23:13:39.788Z,12.80
2022-12-05T23:16:15.074Z,10.82
2022-12-05T23:18:49.370Z,11.15
2022-12-05T23:21:29.708Z,10.75
2022-12-05T23:24:00.034Z,11.00
2022-12-05T23:26:30.394Z,10.57
2022-12-05T23:28:57.317Z,11.63
2022-12-05T23:31:24.231Z,12.05
2022-12-05T23:33:54.496Z,11.50
2022-12-05T23:36:23.116Z,11.38
2022-12-05T23:38:50.022Z,11.60
2022-12-05T23:41:21.980Z,11.52
2022-12-05T23:43:50.645Z,12.27
2022-12-05T23:46:20.151Z,12.60
2022-12-05T23:48:47.384Z,12.60
2022-12-05T23:51:17.175Z,12.38
2022-12-05T23:53:46.358Z,13.23
2022-12-05T23:56:16.239Z,14.18
2022-12-05T23:58:44.495Z,13.50
